sensor_id;sensor_type;location;lat;lon;timestamp;P1;durP1;ratioP1;P2;durP2;ratioP2
13218;SDS011;6674;49.152;11.918;2023-02-28T00:01:34;4.93;;;4.37;;
13218;SDS011;6674;49.152;11.918;2023-02-28T00:04:02;7.03;;;5.00;;
13218;SDS011;6674;49.152;11.918;2023-02-28T00:06:36;5.53;;;4.97;;
13218;SDS011;6674;49.152;11.918;2023-02-28T00:09:03;5.87;;;4.40;;
13218;SDS011;6674;49.152;11.918;2023-02-28T00:11:29;5.03;;;4.13;;
13218;SDS011;6674;49.152;11.918;2023-02-28T00:13:56;5.07;;;4.50;;
13218;SDS011;6674;49.152;11.918;2023-02-28T00:16:25;5.23;;;4.73;;
13218;SDS011;6674;49.152;11.918;2023-02-28T00:18:51;5.00;;;4.50;;
13218;SDS011;6674;49.152;11.918;2023-02-28T00:21:19;5.40;;;4.87;;
13218;SDS011;6674;49.152;11.918;2023-02-28T00:23:46;4.70;;;4.10;;
13218;SDS011;6674;49.152;11.918;2023-02-28T00:26:14;4.23;;;3.83;;
13218;SDS011;6674;49.152;11.918;2023-02-28T00:28:41;5.20;;;4.47;;
13218;SDS011;6674;49.152;11.918;2023-02-28T00:31:07;6.90;;;5.30;;
13218;SDS011;6674;49.152;11.918;2023-02-28T00:33:34;5.37;;;4.87;;
13218;SDS011;6674;49.152;11.918;2023-02-28T00:36:01;6.67;;;5.00;;
13218;SDS011;6674;49.152;11.918;2023-02-28T00:38:31;5.30;;;4.70;;
13218;SDS011;6674;49.152;11.918;2023-02-28T00:40:58;5.63;;;4.50;;
13218;SDS011;6674;49.152;11.918;2023-02-28T00:43:29;5.73;;;4.83;;
13218;SDS011;6674;49.152;11.918;2023-02-28T00:45:57;5.90;;;5.00;;
13218;SDS011;6674;49.152;11.918;2023-02-28T00:48:23;5.93;;;5.33;;
13218;SDS011;6674;49.152;11.918;2023-02-28T00:50:50;6.30;;;5.43;;
13218;SDS011;6674;49.152;11.918;2023-02-28T00:53:16;6.27;;;5.30;;
13218;SDS011;6674;49.152;11.918;2023-02-28T00:55:44;5.87;;;5.00;;
13218;SDS011;6674;49.152;11.918;2023-02-28T00:58:11;5.23;;;4.60;;
13218;SDS011;6674;49.152;11.918;2023-02-28T01:00:38;6.30;;;5.63;;
13218;SDS011;6674;49.152;11.918;2023-02-28T01:03:04;5.03;;;4.50;;
13218;SDS011;6674;49.152;11.918;2023-02-28T01:05:31;6.67;;;5.70;;
13218;SDS011;6674;49.152;11.918;2023-02-28T01:07:57;5.77;;;4.83;;
13218;SDS011;6674;49.152;11.918;2023-02-28T01:10:24;5.60;;;5.00;;
13218;SDS011;6674;49.152;11.918;2023-02-28T01:12:52;5.20;;;4.70;;
13218;SDS011;6674;49.152;11.918;2023-02-28T01:15:19;6.60;;;4.90;;
13218;SDS011;6674;49.152;11.918;2023-02-28T01:17:45;6.17;;;5.17;;
13218;SDS011;6674;49.152;11.918;2023-02-28T01:20:12;5.67;;;5.07;;
13218;SDS011;6674;49.152;11.918;2023-02-28T01:22:39;7.03;;;5.50;;
13218;SDS011;6674;49.152;11.918;2023-02-28T01:25:06;5.97;;;5.37;;
13218;SDS011;6674;49.152;11.918;2023-02-28T01:27:33;6.23;;;5.47;;
13218;SDS011;6674;49.152;11.918;2023-02-28T01:30:02;6.10;;;5.43;;
13218;SDS011;6674;49.152;11.918;2023-02-28T01:32:29;5.57;;;4.97;;
13218;SDS011;6674;49.152;11.918;2023-02-28T01:34:56;6.57;;;5.97;;
13218;SDS011;6674;49.152;11.918;2023-02-28T01:37:22;6.07;;;5.47;;
13218;SDS011;6674;49.152;11.918;2023-02-28T01:39:49;5.80;;;4.97;;
13218;SDS011;6674;49.152;11.918;2023-02-28T01:42:16;5.33;;;4.83;;
13218;SDS011;6674;49.152;11.918;2023-02-28T01:45:00;6.00;;;5.30;;
13218;SDS011;6674;49.152;11.918;2023-02-28T01:47:31;6.17;;;5.57;;
13218;SDS011;6674;49.152;11.918;2023-02-28T01:50:01;6.37;;;5.17;;
13218;SDS011;6674;49.152;11.918;2023-02-28T01:52:30;6.90;;;5.67;;
13218;SDS011;6674;49.152;11.918;2023-02-28T01:54:59;6.60;;;5.90;;
13218;SDS011;6674;49.152;11.918;2023-02-28T01:57:28;5.90;;;4.97;;
13218;SDS011;6674;49.152;11.918;2023-02-28T02:00:06;6.57;;;5.60;;
13218;SDS011;6674;49.152;11.918;2023-02-28T02:02:38;7.37;;;5.80;;
13218;SDS011;6674;49.152;11.918;2023-02-28T02:05:07;6.93;;;5.67;;
13218;SDS011;6674;49.152;11.918;2023-02-28T02:07:36;5.47;;;4.97;;
13218;SDS011;6674;49.152;11.918;2023-02-28T02:10:05;6.80;;;5.23;;
13218;SDS011;6674;49.152;11.918;2023-02-28T02:12:44;5.83;;;5.00;;
13218;SDS011;6674;49.152;11.918;2023-02-28T02:15:24;5.97;;;5.07;;
13218;SDS011;6674;49.152;11.918;2023-02-28T02:17:57;5.80;;;4.60;;
13218;SDS011;6674;49.152;11.918;2023-02-28T02:20:38;6.47;;;5.77;;
13218;SDS011;6674;49.152;11.918;2023-02-28T02:23:27;6.90;;;5.90;;
13218;SDS011;6674;49.152;11.918;2023-02-28T02:26:20;7.33;;;6.03;;
13218;SDS011;6674;49.152;11.918;2023-02-28T02:29:13;7.00;;;6.27;;
13218;SDS011;6674;49.152;11.918;2023-02-28T02:32:11;7.50;;;5.60;;
13218;SDS011;6674;49.152;11.918;2023-02-28T02:34:57;6.83;;;5.83;;
13218;SDS011;6674;49.152;11.918;2023-02-28T02:37:29;7.20;;;6.30;;
13218;SDS011;6674;49.152;11.918;2023-02-28T02:40:04;7.43;;;6.20;;
13218;SDS011;6674;49.152;11.918;2023-02-28T02:42:39;8.70;;;6.97;;
13218;SDS011;6674;49.152;11.918;2023-02-28T02:45:11;7.33;;;6.43;;
13218;SDS011;6674;49.152;11.918;2023-02-28T02:47:42;6.73;;;5.57;;
13218;SDS011;6674;49.152;11.918;2023-02-28T02:50:13;7.50;;;6.23;;
13218;SDS011;6674;49.152;11.918;2023-02-28T02:52:47;7.10;;;6.10;;
13218;SDS011;6674;49.152;11.918;2023-02-28T02:55:17;8.47;;;5.73;;
13218;SDS011;6674;49.152;11.918;2023-02-28T02:57:47;7.10;;;6.40;;
13218;SDS011;6674;49.152;11.918;2023-02-28T03:00:17;8.07;;;6.90;;
13218;SDS011;6674;49.152;11.918;2023-02-28T03:02:48;8.33;;;6.83;;
13218;SDS011;6674;49.152;11.918;2023-02-28T03:05:19;7.20;;;6.50;;
13218;SDS011;6674;49.152;11.918;2023-02-28T03:07:49;8.07;;;7.27;;
13218;SDS011;6674;49.152;11.918;2023-02-28T03:10:30;8.77;;;7.10;;
13218;SDS011;6674;49.152;11.918;2023-02-28T03:16:07;7.90;;;6.00;;
13218;SDS011;6674;49.152;11.918;2023-02-28T03:18:54;7.73;;;6.67;;
13218;SDS011;6674;49.152;11.918;2023-02-28T03:21:32;8.93;;;6.93;;
13218;SDS011;6674;49.152;11.918;2023-02-28T03:24:03;8.30;;;6.67;;
13218;SDS011;6674;49.152;11.918;2023-02-28T03:26:34;9.53;;;7.53;;
13218;SDS011;6674;49.152;11.918;2023-02-28T03:29:05;11.20;;;7.67;;
13218;SDS011;6674;49.152;11.918;2023-02-28T03:31:38;8.90;;;8.00;;
13218;SDS011;6674;49.152;11.918;2023-02-28T03:34:08;7.37;;;6.37;;
13218;SDS011;6674;49.152;11.918;2023-02-28T03:36:42;8.13;;;7.17;;
13218;SDS011;6674;49.152;11.918;2023-02-28T03:39:14;8.83;;;7.90;;
13218;SDS011;6674;49.152;11.918;2023-02-28T03:41:45;10.17;;;8.40;;
13218;SDS011;6674;49.152;11.918;2023-02-28T03:44:17;8.20;;;7.33;;
13218;SDS011;6674;49.152;11.918;2023-02-28T03:46:58;8.90;;;8.00;;
13218;SDS011;6674;49.152;11.918;2023-02-28T03:49:30;10.37;;;7.50;;
13218;SDS011;6674;49.152;11.918;2023-02-28T03:52:00;10.50;;;8.17;;
13218;SDS011;6674;49.152;11.918;2023-02-28T03:54:30;8.83;;;7.93;;
13218;SDS011;6674;49.152;11.918;2023-02-28T03:57:02;9.70;;;8.70;;
13218;SDS011;6674;49.152;11.918;2023-02-28T03:59:32;7.30;;;6.60;;
13218;SDS011;6674;49.152;11.918;2023-02-28T04:02:03;8.60;;;7.60;;
13218;SDS011;6674;49.152;11.918;2023-02-28T04:04:30;9.20;;;8.20;;
13218;SDS011;6674;49.152;11.918;2023-02-28T04:07:03;11.13;;;8.47;;
13218;SDS011;6674;49.152;11.918;2023-02-28T04:09:32;9.13;;;8.00;;
13218;SDS011;6674;49.152;11.918;2023-02-28T04:11:58;9.43;;;8.37;;
13218;SDS011;6674;49.152;11.918;2023-02-28T04:14:25;10.03;;;8.77;;
13218;SDS011;6674;49.152;11.918;2023-02-28T04:16:52;9.80;;;8.57;;
13218;SDS011;6674;49.152;11.918;2023-02-28T04:19:19;9.13;;;8.23;;
13218;SDS011;6674;49.152;11.918;2023-02-28T04:21:46;9.47;;;8.40;;
13218;SDS011;6674;49.152;11.918;2023-02-28T04:24:15;10.70;;;8.63;;
13218;SDS011;6674;49.152;11.918;2023-02-28T04:26:44;11.20;;;8.57;;
13218;SDS011;6674;49.152;11.918;2023-02-28T04:29:12;10.90;;;8.10;;
13218;SDS011;6674;49.152;11.918;2023-02-28T04:31:40;12.37;;;10.13;;
13218;SDS011;6674;49.152;11.918;2023-02-28T04:34:06;13.47;;;11.10;;
13218;SDS011;6674;49.152;11.918;2023-02-28T04:36:33;12.00;;;10.27;;
13218;SDS011;6674;49.152;11.918;2023-02-28T04:39:00;11.53;;;9.77;;
13218;SDS011;6674;49.152;11.918;2023-02-28T04:41:28;12.53;;;10.37;;
13218;SDS011;6674;49.152;11.918;2023-02-28T04:43:54;10.87;;;9.23;;
13218;SDS011;6674;49.152;11.918;2023-02-28T04:46:22;11.83;;;9.57;;
13218;SDS011;6674;49.152;11.918;2023-02-28T04:48:49;12.00;;;10.73;;
13218;SDS011;6674;49.152;11.918;2023-02-28T04:51:16;13.00;;;11.17;;
13218;SDS011;6674;49.152;11.918;2023-02-28T04:53:44;13.70;;;10.90;;
13218;SDS011;6674;49.152;11.918;2023-02-28T04:56:11;12.20;;;10.50;;
13218;SDS011;6674;49.152;11.918;2023-02-28T04:58:41;13.80;;;11.53;;
13218;SDS011;6674;49.152;11.918;2023-02-28T05:01:16;14.43;;;12.53;;
13218;SDS011;6674;49.152;11.918;2023-02-28T05:03:44;13.57;;;10.60;;
13218;SDS011;6674;49.152;11.918;2023-02-28T05:06:12;15.57;;;12.13;;
13218;SDS011;6674;49.152;11.918;2023-02-28T05:08:39;12.03;;;9.93;;
13218;SDS011;6674;49.152;11.918;2023-02-28T05:11:06;11.97;;;10.10;;
13218;SDS011;6674;49.152;11.918;2023-02-28T05:13:44;12.30;;;10.27;;
13218;SDS011;6674;49.152;11.918;2023-02-28T05:16:11;25.67;;;18.97;;
13218;SDS011;6674;49.152;11.918;2023-02-28T05:18:38;15.30;;;11.63;;
13218;SDS011;6674;49.152;11.918;2023-02-28T05:21:05;13.37;;;11.00;;
13218;SDS011;6674;49.152;11.918;2023-02-28T05:23:32;16.67;;;12.93;;
13218;SDS011;6674;49.152;11.918;2023-02-28T05:25:58;11.90;;;10.70;;
13218;SDS011;6674;49.152;11.918;2023-02-28T05:28:25;12.03;;;10.73;;
13218;SDS011;6674;49.152;11.918;2023-02-28T05:30:53;10.87;;;9.67;;
13218;SDS011;6674;49.152;11.918;2023-02-28T05:33:20;11.03;;;9.80;;
13218;SDS011;6674;49.152;11.918;2023-02-28T05:35:46;12.63;;;9.43;;
13218;SDS011;6674;49.152;11.918;2023-02-28T05:38:13;10.83;;;9.40;;
13218;SDS011;6674;49.152;11.918;2023-02-28T05:40:39;11.43;;;10.20;;
13218;SDS011;6674;49.152;11.918;2023-02-28T05:43:08;11.13;;;9.50;;
13218;SDS011;6674;49.152;11.918;2023-02-28T05:45:36;11.33;;;9.70;;
13218;SDS011;6674;49.152;11.918;2023-02-28T05:48:05;11.67;;;10.50;;
13218;SDS011;6674;49.152;11.918;2023-02-28T05:50:32;12.13;;;10.10;;
13218;SDS011;6674;49.152;11.918;2023-02-28T05:52:58;16.67;;;12.60;;
13218;SDS011;6674;49.152;11.918;2023-02-28T05:55:25;17.83;;;13.20;;
13218;SDS011;6674;49.152;11.918;2023-02-28T05:57:52;18.17;;;13.40;;
13218;SDS011;6674;49.152;11.918;2023-02-28T06:00:19;21.57;;;14.83;;
13218;SDS011;6674;49.152;11.918;2023-02-28T06:02:46;18.60;;;13.90;;
13218;SDS011;6674;49.152;11.918;2023-02-28T06:05:14;25.77;;;18.67;;
13218;SDS011;6674;49.152;11.918;2023-02-28T06:07:43;20.83;;;13.30;;
13218;SDS011;6674;49.152;11.918;2023-02-28T06:10:10;27.37;;;19.60;;
13218;SDS011;6674;49.152;11.918;2023-02-28T06:12:38;14.17;;;11.50;;
13218;SDS011;6674;49.152;11.918;2023-02-28T06:15:07;15.50;;;12.10;;
13218;SDS011;6674;49.152;11.918;2023-02-28T06:17:36;19.07;;;13.63;;
13218;SDS011;6674;49.152;11.918;2023-02-28T06:20:03;21.27;;;14.20;;
13218;SDS011;6674;49.152;11.918;2023-02-28T06:22:32;16.90;;;11.70;;
13218;SDS011;6674;49.152;11.918;2023-02-28T06:24:58;16.67;;;12.30;;
13218;SDS011;6674;49.152;11.918;2023-02-28T06:27:25;24.20;;;15.93;;
13218;SDS011;6674;49.152;11.918;2023-02-28T06:29:53;40.43;;;20.40;;
13218;SDS011;6674;49.152;11.918;2023-02-28T06:32:20;35.27;;;19.33;;
13218;SDS011;6674;49.152;11.918;2023-02-28T06:34:47;25.43;;;15.73;;
13218;SDS011;6674;49.152;11.918;2023-02-28T06:37:13;15.13;;;11.73;;
13218;SDS011;6674;49.152;11.918;2023-02-28T06:39:42;10.60;;;9.27;;
13218;SDS011;6674;49.152;11.918;2023-02-28T06:42:08;12.00;;;10.30;;
13218;SDS011;6674;49.152;11.918;2023-02-28T06:44:35;12.40;;;9.90;;
13218;SDS011;6674;49.152;11.918;2023-02-28T06:47:03;9.17;;;8.27;;
13218;SDS011;6674;49.152;11.918;2023-02-28T06:49:32;9.10;;;8.10;;
13218;SDS011;6674;49.152;11.918;2023-02-28T06:51:59;12.07;;;9.27;;
13218;SDS011;6674;49.152;11.918;2023-02-28T06:54:26;8.43;;;7.50;;
13218;SDS011;6674;49.152;11.918;2023-02-28T06:56:54;8.57;;;7.67;;
13218;SDS011;6674;49.152;11.918;2023-02-28T06:59:21;9.10;;;7.87;;
13218;SDS011;6674;49.152;11.918;2023-02-28T07:01:47;10.67;;;8.73;;
13218;SDS011;6674;49.152;11.918;2023-02-28T07:04:15;8.10;;;6.90;;
13218;SDS011;6674;49.152;11.918;2023-02-28T07:06:42;9.37;;;7.97;;
13218;SDS011;6674;49.152;11.918;2023-02-28T07:09:08;7.60;;;6.80;;
13218;SDS011;6674;49.152;11.918;2023-02-28T07:11:35;9.77;;;6.97;;
13218;SDS011;6674;49.152;11.918;2023-02-28T07:14:03;9.30;;;7.50;;
13218;SDS011;6674;49.152;11.918;2023-02-28T07:16:30;8.13;;;6.93;;
13218;SDS011;6674;49.152;11.918;2023-02-28T07:18:57;9.70;;;7.20;;
13218;SDS011;6674;49.152;11.918;2023-02-28T07:21:23;8.77;;;7.60;;
13218;SDS011;6674;49.152;11.918;2023-02-28T07:23:50;8.30;;;7.50;;
13218;SDS011;6674;49.152;11.918;2023-02-28T07:26:18;8.47;;;7.17;;
13218;SDS011;6674;49.152;11.918;2023-02-28T07:28:47;9.40;;;7.37;;
13218;SDS011;6674;49.152;11.918;2023-02-28T07:31:16;8.17;;;7.10;;
13218;SDS011;6674;49.152;11.918;2023-02-28T07:33:43;8.07;;;7.10;;
13218;SDS011;6674;49.152;11.918;2023-02-28T07:36:11;8.77;;;7.83;;
13218;SDS011;6674;49.152;11.918;2023-02-28T07:38:40;8.23;;;7.30;;
13218;SDS011;6674;49.152;11.918;2023-02-28T07:41:08;8.67;;;7.77;;
13218;SDS011;6674;49.152;11.918;2023-02-28T07:43:35;8.30;;;7.50;;
13218;SDS011;6674;49.152;11.918;2023-02-28T07:46:02;9.33;;;7.87;;
13218;SDS011;6674;49.152;11.918;2023-02-28T07:48:31;8.37;;;7.40;;
13218;SDS011;6674;49.152;11.918;2023-02-28T07:50:58;9.60;;;8.50;;
13218;SDS011;6674;49.152;11.918;2023-02-28T07:53:26;10.37;;;8.93;;
13218;SDS011;6674;49.152;11.918;2023-02-28T07:55:54;8.70;;;7.80;;
13218;SDS011;6674;49.152;11.918;2023-02-28T07:58:21;10.23;;;7.80;;
13218;SDS011;6674;49.152;11.918;2023-02-28T08:00:48;8.40;;;7.50;;
13218;SDS011;6674;49.152;11.918;2023-02-28T08:03:15;9.87;;;7.97;;
13218;SDS011;6674;49.152;11.918;2023-02-28T08:05:43;8.63;;;7.27;;
13218;SDS011;6674;49.152;11.918;2023-02-28T08:08:10;9.97;;;7.90;;
13218;SDS011;6674;49.152;11.918;2023-02-28T08:10:37;9.60;;;8.57;;
13218;SDS011;6674;49.152;11.918;2023-02-28T08:13:04;8.97;;;7.83;;
13218;SDS011;6674;49.152;11.918;2023-02-28T08:15:30;9.23;;;8.20;;
13218;SDS011;6674;49.152;11.918;2023-02-28T08:17:57;10.20;;;7.60;;
13218;SDS011;6674;49.152;11.918;2023-02-28T08:20:24;9.77;;;7.57;;
13218;SDS011;6674;49.152;11.918;2023-02-28T08:22:53;9.93;;;7.13;;
13218;SDS011;6674;49.152;11.918;2023-02-28T08:25:20;7.97;;;7.17;;
13218;SDS011;6674;49.152;11.918;2023-02-28T08:27:46;8.57;;;7.40;;
13218;SDS011;6674;49.152;11.918;2023-02-28T08:30:13;8.53;;;7.53;;
13218;SDS011;6674;49.152;11.918;2023-02-28T08:32:41;8.90;;;7.57;;
13218;SDS011;6674;49.152;11.918;2023-02-28T08:35:08;9.50;;;7.63;;
13218;SDS011;6674;49.152;11.918;2023-02-28T08:37:35;7.90;;;6.80;;
13218;SDS011;6674;49.152;11.918;2023-02-28T08:40:04;10.47;;;7.30;;
13218;SDS011;6674;49.152;11.918;2023-02-28T08:42:32;10.30;;;7.70;;
13218;SDS011;6674;49.152;11.918;2023-02-28T08:44:58;10.77;;;7.17;;
13218;SDS011;6674;49.152;11.918;2023-02-28T08:47:25;9.00;;;7.47;;
13218;SDS011;6674;49.152;11.918;2023-02-28T08:49:52;8.23;;;7.20;;
13218;SDS011;6674;49.152;11.918;2023-02-28T08:52:19;9.07;;;7.50;;
13218;SDS011;6674;49.152;11.918;2023-02-28T08:54:45;8.47;;;7.00;;
13218;SDS011;6674;49.152;11.918;2023-02-28T08:57:13;8.50;;;7.30;;
13218;SDS011;6674;49.152;11.918;2023-02-28T08:59:40;8.57;;;7.40;;
13218;SDS011;6674;49.152;11.918;2023-02-28T09:02:08;8.80;;;7.13;;
13218;SDS011;6674;49.152;11.918;2023-02-28T09:04:35;8.67;;;7.77;;
13218;SDS011;6674;49.152;11.918;2023-02-28T09:07:02;8.73;;;7.50;;
13218;SDS011;6674;49.152;11.918;2023-02-28T09:09:28;11.87;;;8.83;;
13218;SDS011;6674;49.152;11.918;2023-02-28T09:11:55;16.90;;;13.23;;
13218;SDS011;6674;49.152;11.918;2023-02-28T09:14:23;67.87;;;42.20;;
13218;SDS011;6674;49.152;11.918;2023-02-28T09:16:50;41.97;;;29.23;;
13218;SDS011;6674;49.152;11.918;2023-02-28T09:19:16;20.83;;;18.57;;
13218;SDS011;6674;49.152;11.918;2023-02-28T09:21:43;21.50;;;19.27;;
13218;SDS011;6674;49.152;11.918;2023-02-28T09:24:10;27.97;;;21.70;;
13218;SDS011;6674;49.152;11.918;2023-02-28T09:26:39;23.17;;;17.13;;
13218;SDS011;6674;49.152;11.918;2023-02-28T09:29:06;17.37;;;15.60;;
13218;SDS011;6674;49.152;11.918;2023-02-28T09:31:34;14.40;;;12.90;;
13218;SDS011;6674;49.152;11.918;2023-02-28T09:34:00;11.67;;;10.47;;
13218;SDS011;6674;49.152;11.918;2023-02-28T09:36:27;9.13;;;8.23;;
13218;SDS011;6674;49.152;11.918;2023-02-28T09:38:55;7.80;;;7.00;;
13218;SDS011;6674;49.152;11.918;2023-02-28T09:41:22;9.27;;;8.23;;
13218;SDS011;6674;49.152;11.918;2023-02-28T09:43:51;9.20;;;8.30;;
13218;SDS011;6674;49.152;11.918;2023-02-28T09:46:28;9.03;;;8.13;;
13218;SDS011;6674;49.152;11.918;2023-02-28T09:49:00;9.63;;;8.20;;
13218;SDS011;6674;49.152;11.918;2023-02-28T09:51:40;9.07;;;7.67;;
13218;SDS011;6674;49.152;11.918;2023-02-28T09:54:14;9.20;;;7.80;;
13218;SDS011;6674;49.152;11.918;2023-02-28T09:56:44;8.27;;;7.37;;
13218;SDS011;6674;49.152;11.918;2023-02-28T09:59:14;9.90;;;8.90;;
13218;SDS011;6674;49.152;11.918;2023-02-28T10:01:51;9.33;;;7.63;;
13218;SDS011;6674;49.152;11.918;2023-02-28T10:04:33;9.37;;;8.33;;
13218;SDS011;6674;49.152;11.918;2023-02-28T10:07:15;8.23;;;7.43;;
13218;SDS011;6674;49.152;11.918;2023-02-28T10:09:49;9.40;;;7.17;;
13218;SDS011;6674;49.152;11.918;2023-02-28T10:12:24;8.07;;;7.03;;
13218;SDS011;6674;49.152;11.918;2023-02-28T10:14:52;8.10;;;7.30;;
13218;SDS011;6674;49.152;11.918;2023-02-28T10:17:21;7.63;;;6.93;;
13218;SDS011;6674;49.152;11.918;2023-02-28T10:19:55;8.30;;;6.90;;
13218;SDS011;6674;49.152;11.918;2023-02-28T10:22:34;7.93;;;7.13;;
13218;SDS011;6674;49.152;11.918;2023-02-28T10:25:11;8.93;;;8.03;;
13218;SDS011;6674;49.152;11.918;2023-02-28T10:27:43;8.10;;;7.30;;
13218;SDS011;6674;49.152;11.918;2023-02-28T10:30:11;8.43;;;7.53;;
13218;SDS011;6674;49.152;11.918;2023-02-28T10:32:39;8.90;;;7.70;;
13218;SDS011;6674;49.152;11.918;2023-02-28T10:35:10;8.53;;;7.73;;
13218;SDS011;6674;49.152;11.918;2023-02-28T10:37:41;7.97;;;7.07;;
13218;SDS011;6674;49.152;11.918;2023-02-28T10:40:25;8.33;;;7.17;;
13218;SDS011;6674;49.152;11.918;2023-02-28T10:42:55;7.33;;;6.57;;
13218;SDS011;6674;49.152;11.918;2023-02-28T10:45:23;9.53;;;8.00;;
13218;SDS011;6674;49.152;11.918;2023-02-28T10:47:52;8.57;;;7.67;;
13218;SDS011;6674;49.152;11.918;2023-02-28T10:50:30;8.30;;;7.40;;
13218;SDS011;6674;49.152;11.918;2023-02-28T10:55:56;8.57;;;7.67;;
13218;SDS011;6674;49.152;11.918;2023-02-28T10:58:24;8.80;;;7.93;;
13218;SDS011;6674;49.152;11.918;2023-02-28T11:00:52;15.10;;;12.53;;
13218;SDS011;6674;49.152;11.918;2023-02-28T11:03:29;97.03;;;60.93;;
13218;SDS011;6674;49.152;11.918;2023-02-28T11:06:03;104.27;;;64.43;;
13218;SDS011;6674;49.152;11.918;2023-02-28T11:08:33;43.67;;;31.03;;
13218;SDS011;6674;49.152;11.918;2023-02-28T11:11:03;9.77;;;8.77;;
13218;SDS011;6674;49.152;11.918;2023-02-28T11:13:32;15.17;;;13.57;;
13218;SDS011;6674;49.152;11.918;2023-02-28T11:16:00;12.43;;;11.13;;
13218;SDS011;6674;49.152;11.918;2023-02-28T11:18:30;9.80;;;8.63;;
13218;SDS011;6674;49.152;11.918;2023-02-28T11:21:05;9.20;;;8.30;;
13218;SDS011;6674;49.152;11.918;2023-02-28T11:23:32;8.73;;;7.83;;
13218;SDS011;6674;49.152;11.918;2023-02-28T11:26:02;8.50;;;7.70;;
13218;SDS011;6674;49.152;11.918;2023-02-28T11:28:35;9.17;;;8.23;;
13218;SDS011;6674;49.152;11.918;2023-02-28T11:31:04;9.43;;;8.47;;
13218;SDS011;6674;49.152;11.918;2023-02-28T11:33:41;9.20;;;8.33;;
13218;SDS011;6674;49.152;11.918;2023-02-28T11:36:13;9.60;;;8.27;;
13218;SDS011;6674;49.152;11.918;2023-02-28T11:38:40;9.70;;;8.70;;
13218;SDS011;6674;49.152;11.918;2023-02-28T11:41:28;9.30;;;8.33;;
13218;SDS011;6674;49.152;11.918;2023-02-28T11:44:15;8.93;;;8.03;;
13218;SDS011;6674;49.152;11.918;2023-02-28T11:46:50;9.43;;;7.93;;
13218;SDS011;6674;49.152;11.918;2023-02-28T11:49:23;8.87;;;7.93;;
13218;SDS011;6674;49.152;11.918;2023-02-28T11:51:59;9.87;;;8.77;;
13218;SDS011;6674;49.152;11.918;2023-02-28T11:57:26;9.00;;;8.10;;
13218;SDS011;6674;49.152;11.918;2023-02-28T12:00:03;9.33;;;8.33;;
13218;SDS011;6674;49.152;11.918;2023-02-28T12:02:58;9.07;;;8.13;;
13218;SDS011;6674;49.152;11.918;2023-02-28T12:05:38;8.50;;;7.70;;
13218;SDS011;6674;49.152;11.918;2023-02-28T12:08:15;7.67;;;6.87;;
13218;SDS011;6674;49.152;11.918;2023-02-28T12:10:59;8.03;;;6.33;;
13218;SDS011;6674;49.152;11.918;2023-02-28T12:13:37;7.43;;;6.63;;
13218;SDS011;6674;49.152;11.918;2023-02-28T12:16:16;8.03;;;6.90;;
13218;SDS011;6674;49.152;11.918;2023-02-28T12:18:55;8.60;;;7.73;;
13218;SDS011;6674;49.152;11.918;2023-02-28T12:21:35;7.80;;;6.80;;
13218;SDS011;6674;49.152;11.918;2023-02-28T12:24:24;7.87;;;7.07;;
13218;SDS011;6674;49.152;11.918;2023-02-28T12:27:02;7.47;;;6.77;;
13218;SDS011;6674;49.152;11.918;2023-02-28T12:29:34;7.17;;;6.47;;
13218;SDS011;6674;49.152;11.918;2023-02-28T12:32:09;7.37;;;6.67;;
13218;SDS011;6674;49.152;11.918;2023-02-28T12:34:41;8.30;;;6.90;;
13218;SDS011;6674;49.152;11.918;2023-02-28T12:37:13;8.83;;;7.23;;
13218;SDS011;6674;49.152;11.918;2023-02-28T12:39:45;7.23;;;6.53;;
13218;SDS011;6674;49.152;11.918;2023-02-28T12:42:16;6.87;;;6.10;;
13218;SDS011;6674;49.152;11.918;2023-02-28T12:44:51;8.63;;;7.23;;
13218;SDS011;6674;49.152;11.918;2023-02-28T12:47:20;7.80;;;7.10;;
13218;SDS011;6674;49.152;11.918;2023-02-28T12:49:48;9.23;;;8.33;;
13218;SDS011;6674;49.152;11.918;2023-02-28T12:52:20;8.23;;;7.30;;
13218;SDS011;6674;49.152;11.918;2023-02-28T12:54:53;9.97;;;8.90;;
13218;SDS011;6674;49.152;11.918;2023-02-28T12:57:28;17.47;;;14.40;;
13218;SDS011;6674;49.152;11.918;2023-02-28T13:00:03;16.23;;;14.07;;
13218;SDS011;6674;49.152;11.918;2023-02-28T13:02:48;19.23;;;17.10;;
13218;SDS011;6674;49.152;11.918;2023-02-28T13:05:39;10.93;;;9.50;;
13218;SDS011;6674;49.152;11.918;2023-02-28T13:08:56;9.13;;;8.07;;
13218;SDS011;6674;49.152;11.918;2023-02-28T13:11:29;20.47;;;16.67;;
13218;SDS011;6674;49.152;11.918;2023-02-28T13:14:00;15.70;;;13.50;;
13218;SDS011;6674;49.152;11.918;2023-02-28T13:16:42;10.70;;;9.60;;
13218;SDS011;6674;49.152;11.918;2023-02-28T13:19:17;18.67;;;16.37;;
13218;SDS011;6674;49.152;11.918;2023-02-28T13:21:45;13.07;;;11.67;;
13218;SDS011;6674;49.152;11.918;2023-02-28T13:24:36;14.83;;;12.90;;
13218;SDS011;6674;49.152;11.918;2023-02-28T13:27:22;11.00;;;9.90;;
13218;SDS011;6674;49.152;11.918;2023-02-28T13:29:57;31.80;;;21.97;;
13218;SDS011;6674;49.152;11.918;2023-02-28T13:32:31;28.93;;;20.03;;
13218;SDS011;6674;49.152;11.918;2023-02-28T13:38:13;19.80;;;15.10;;
13218;SDS011;6674;49.152;11.918;2023-02-28T13:40:43;8.93;;;8.03;;
13218;SDS011;6674;49.152;11.918;2023-02-28T13:43:12;14.33;;;11.43;;
13218;SDS011;6674;49.152;11.918;2023-02-28T13:48:34;8.00;;;7.20;;
13218;SDS011;6674;49.152;11.918;2023-02-28T13:54:06;7.73;;;7.03;;
13218;SDS011;6674;49.152;11.918;2023-02-28T13:57:01;8.03;;;7.23;;
13218;SDS011;6674;49.152;11.918;2023-02-28T13:59:42;7.90;;;7.17;;
13218;SDS011;6674;49.152;11.918;2023-02-28T14:02:33;7.80;;;7.03;;
13218;SDS011;6674;49.152;11.918;2023-02-28T14:05:12;7.53;;;6.83;;
13218;SDS011;6674;49.152;11.918;2023-02-28T14:07:41;7.97;;;7.27;;
13218;SDS011;6674;49.152;11.918;2023-02-28T14:10:19;7.87;;;7.07;;
13218;SDS011;6674;49.152;11.918;2023-02-28T14:12:57;10.10;;;7.60;;
13218;SDS011;6674;49.152;11.918;2023-02-28T14:15:50;7.63;;;6.83;;
13218;SDS011;6674;49.152;11.918;2023-02-28T14:18:24;7.80;;;7.00;;
13218;SDS011;6674;49.152;11.918;2023-02-28T14:20:55;10.87;;;7.77;;
13218;SDS011;6674;49.152;11.918;2023-02-28T14:23:31;8.27;;;7.47;;
13218;SDS011;6674;49.152;11.918;2023-02-28T14:26:07;8.13;;;7.33;;
13218;SDS011;6674;49.152;11.918;2023-02-28T14:28:45;8.20;;;7.40;;
13218;SDS011;6674;49.152;11.918;2023-02-28T14:31:23;8.80;;;7.80;;
13218;SDS011;6674;49.152;11.918;2023-02-28T14:34:02;8.33;;;7.53;;
13218;SDS011;6674;49.152;11.918;2023-02-28T14:36:40;8.00;;;7.20;;
13218;SDS011;6674;49.152;11.918;2023-02-28T14:39:12;8.37;;;7.57;;
13218;SDS011;6674;49.152;11.918;2023-02-28T14:41:41;8.37;;;7.57;;
13218;SDS011;6674;49.152;11.918;2023-02-28T14:44:15;8.27;;;7.47;;
13218;SDS011;6674;49.152;11.918;2023-02-28T14:46:45;7.83;;;7.03;;
13218;SDS011;6674;49.152;11.918;2023-02-28T14:49:16;8.63;;;7.70;;
13218;SDS011;6674;49.152;11.918;2023-02-28T14:51:45;8.63;;;7.47;;
13218;SDS011;6674;49.152;11.918;2023-02-28T14:54:13;7.93;;;7.03;;
13218;SDS011;6674;49.152;11.918;2023-02-28T14:56:41;8.37;;;7.57;;
13218;SDS011;6674;49.152;11.918;2023-02-28T14:59:24;8.27;;;7.37;;
13218;SDS011;6674;49.152;11.918;2023-02-28T15:04:42;8.40;;;7.53;;
13218;SDS011;6674;49.152;11.918;2023-02-28T15:07:09;7.80;;;7.00;;
13218;SDS011;6674;49.152;11.918;2023-02-28T15:09:36;8.10;;;7.30;;
13218;SDS011;6674;49.152;11.918;2023-02-28T15:12:03;7.97;;;7.17;;
13218;SDS011;6674;49.152;11.918;2023-02-28T15:14:30;7.73;;;7.00;;
13218;SDS011;6674;49.152;11.918;2023-02-28T15:16:58;7.43;;;6.73;;
13218;SDS011;6674;49.152;11.918;2023-02-28T15:19:28;7.00;;;6.40;;
13218;SDS011;6674;49.152;11.918;2023-02-28T15:21:57;8.43;;;7.30;;
13218;SDS011;6674;49.152;11.918;2023-02-28T15:24:30;7.80;;;6.90;;